Time;durP1;ratioP1;P1;durP2;ratioP2;P2;SDS_P1;SDS_P2;PMS_P1;PMS_P2;Temp;Humidity;BMP_temperature;BMP_pressure;BME280_temperature;BME280_humidity;BME280_pressure;Samples;Min_cycle;Max_cycle;Signal;HPM_P1;HPM_P2
2022/09/17 00:00:18;;;;;;;4.63;1.10;;;;;;;;;;4987690;28;20288;-54
2022/09/17 00:02:46;;;;;;;2.27;0.70;;;;;;;;;;4986207;28;20200;-54
2022/09/17 00:05:12;;;;;;;5.47;0.90;;;;;;;;;;4982283;28;20628;-52
2022/09/17 00:07:39;;;;;;;1.00;0.60;;;;;;;;;;4981887;28;20275;-53
2022/09/17 00:10:06;;;;;;;2.80;0.90;;;;;;;;;;4982385;28;20225;-54
2022/09/17 00:12:32;;;;;;;2.17;0.83;;;;;;;;;;4986847;28;20209;-53
2022/09/17 00:14:58;;;;;;;3.33;0.90;;;;;;;;;;4985938;28;20701;-53
2022/09/17 00:17:25;;;;;;;2.80;0.80;;;;;;;;;;4986565;28;20300;-54
2022/09/17 00:19:51;;;;;;;1.90;0.80;;;;;;;;;;4985970;28;20276;-53
2022/09/17 00:22:17;;;;;;;2.57;0.90;;;;;;;;;;4983910;28;20252;-51
2022/09/17 00:24:43;;;;;;;3.53;0.90;;;;;;;;;;4987435;28;20636;-52
2022/09/17 00:27:10;;;;;;;1.50;0.63;;;;;;;;;;4984511;28;20759;-53
2022/09/17 00:29:36;;;;;;;2.23;0.77;;;;;;;;;;4990673;28;20299;-50
2022/09/17 00:32:02;;;;;;;0.63;0.53;;;;;;;;;;4989866;28;20284;-54
2022/09/17 00:34:29;;;;;;;2.20;0.83;;;;;;;;;;4991016;28;20204;-54
2022/09/17 00:36:55;;;;;;;2.50;0.90;;;;;;;;;;4991136;28;20229;-52
2022/09/17 00:39:22;;;;;;;1.73;0.87;;;;;;;;;;4982692;28;20200;-52
2022/09/17 00:41:48;;;;;;;4.97;1.00;;;;;;;;;;4986611;28;20208;-52
2022/09/17 00:44:43;;;;;;;4.10;0.70;;;;;;;;;;4992409;28;20197;-53
2022/09/17 00:47:20;;;;;;;2.67;0.70;;;;;;;;;;4980561;28;20563;-53
2022/09/17 00:49:50;;;;;;;2.83;0.80;;;;;;;;;;4983536;28;20299;-51
2022/09/17 00:52:24;;;;;;;2.23;0.80;;;;;;;;;;4965593;28;20340;-54
2022/09/17 00:55:02;;;;;;;2.00;0.83;;;;;;;;;;4979802;28;20291;-54
2022/09/17 00:57:29;;;;;;;3.50;0.90;;;;;;;;;;4973696;28;20621;-53
2022/09/17 00:59:56;;;;;;;2.30;1.10;;;;;;;;;;4976981;28;20237;-52
2022/09/17 01:02:23;;;;;;;4.27;0.90;;;;;;;;;;4986737;28;20681;-51
2022/09/17 01:04:50;;;;;;;2.27;0.80;;;;;;;;;;4972057;28;20244;-53
2022/09/17 01:07:30;;;;;;;1.13;0.67;;;;;;;;;;4983776;28;20340;-53
2022/09/17 01:10:05;;;;;;;2.23;0.90;;;;;;;;;;4963881;28;20303;-51
2022/09/17 01:12:44;;;;;;;3.30;1.00;;;;;;;;;;4989018;28;20283;-51
2022/09/17 01:15:23;;;;;;;3.43;1.13;;;;;;;;;;4966772;28;20617;-52
2022/09/17 01:18:20;;;;;;;1.23;0.80;;;;;;;;;;4986039;28;20315;-50
2022/09/17 01:21:28;;;;;;;2.87;0.77;;;;;;;;;;4963360;28;20194;-49
2022/09/17 01:24:17;;;;;;;3.37;1.17;;;;;;;;;;4951039;28;20280;-49
2022/09/17 01:27:08;;;;;;;3.43;0.90;;;;;;;;;;4969396;28;20227;-48
2022/09/17 01:29:50;;;;;;;4.13;1.43;;;;;;;;;;4982421;28;20309;-48
2022/09/17 01:32:30;;;;;;;2.97;1.00;;;;;;;;;;4987432;28;20296;-50
2022/09/17 01:35:10;;;;;;;2.93;0.87;;;;;;;;;;4970678;28;20284;-50
2022/09/17 01:37:42;;;;;;;2.03;0.97;;;;;;;;;;4967601;28;20225;-50
2022/09/17 01:40:24;;;;;;;3.23;0.90;;;;;;;;;;4988703;28;20637;-50
2022/09/17 01:42:58;;;;;;;3.50;0.90;;;;;;;;;;4983457;28;20276;-48
2022/09/17 01:45:31;;;;;;;2.30;1.10;;;;;;;;;;4984382;28;20331;-51
2022/09/17 01:48:02;;;;;;;2.77;0.97;;;;;;;;;;4968118;28;20316;-49
2022/09/17 01:50:51;;;;;;;2.93;1.00;;;;;;;;;;4967076;28;20700;-49
2022/09/17 01:53:21;;;;;;;2.30;1.03;;;;;;;;;;4968779;28;20689;-53
2022/09/17 01:55:50;;;;;;;3.20;1.23;;;;;;;;;;4964315;28;20194;-53
2022/09/17 01:58:22;;;;;;;1.70;0.93;;;;;;;;;;4972331;28;20666;-53
2022/09/17 02:00:54;;;;;;;2.17;0.83;;;;;;;;;;4982982;28;20195;-54
2022/09/17 02:03:30;;;;;;;7.13;1.20;;;;;;;;;;4970492;28;20204;-54
2022/09/17 02:06:04;;;;;;;3.07;1.07;;;;;;;;;;4969904;28;20224;-53
2022/09/17 02:09:12;;;;;;;3.33;1.20;;;;;;;;;;4981495;28;20795;-54
2022/09/17 02:11:43;;;;;;;1.27;0.90;;;;;;;;;;4947531;28;20676;-54
2022/09/17 02:14:16;;;;;;;3.93;1.27;;;;;;;;;;4986426;28;20296;-53
2022/09/17 02:16:48;;;;;;;1.43;0.93;;;;;;;;;;4969290;28;20299;-53
2022/09/17 02:19:18;;;;;;;3.17;1.00;;;;;;;;;;4989380;28;21528;-52
2022/09/17 02:21:59;;;;;;;2.73;1.13;;;;;;;;;;4970708;28;20251;-53
2022/09/17 02:24:37;;;;;;;4.33;0.90;;;;;;;;;;4980532;28;20289;-53
2022/09/17 02:27:09;;;;;;;2.40;1.00;;;;;;;;;;4971402;28;20220;-54
2022/09/17 02:29:38;;;;;;;3.37;0.90;;;;;;;;;;4982741;28;20309;-52
2022/09/17 02:32:05;;;;;;;3.47;1.10;;;;;;;;;;4964066;28;20736;-54
2022/09/17 02:34:32;;;;;;;3.30;1.00;;;;;;;;;;4983634;28;20247;-50
2022/09/17 02:36:58;;;;;;;3.13;0.90;;;;;;;;;;4985969;28;20216;-54
2022/09/17 02:39:25;;;;;;;3.10;1.10;;;;;;;;;;4971454;28;20252;-54
2022/09/17 02:42:03;;;;;;;2.93;1.03;;;;;;;;;;4986257;28;20235;-54
2022/09/17 02:44:45;;;;;;;2.47;1.30;;;;;;;;;;4978382;28;20279;-50
2022/09/17 02:47:38;;;;;;;2.80;1.00;;;;;;;;;;4989028;28;20616;-54
2022/09/17 02:50:40;;;;;;;3.73;1.20;;;;;;;;;;4964870;28;20335;-54
2022/09/17 02:53:45;;;;;;;3.60;1.37;;;;;;;;;;4974312;28;20197;-54
2022/09/17 02:56:34;;;;;;;3.27;1.23;;;;;;;;;;4982204;28;20279;-51
2022/09/17 02:59:40;;;;;;;4.30;1.00;;;;;;;;;;4978271;28;20284;-51
2022/09/17 03:02:29;;;;;;;2.97;1.10;;;;;;;;;;4982553;28;20280;-54
2022/09/17 03:04:56;;;;;;;2.90;1.00;;;;;;;;;;4981068;28;20228;-54
2022/09/17 03:07:22;;;;;;;1.60;1.07;;;;;;;;;;4988428;28;20311;-53
2022/09/17 03:09:49;;;;;;;1.57;1.00;;;;;;;;;;4962468;28;20317;-52
2022/09/17 03:12:15;;;;;;;4.33;1.00;;;;;;;;;;4977629;28;20229;-52
2022/09/17 03:14:42;;;;;;;2.17;1.13;;;;;;;;;;4979115;28;20296;-53
2022/09/17 03:17:09;;;;;;;4.40;0.97;;;;;;;;;;4978276;28;20744;-52
2022/09/17 03:19:35;;;;;;;3.57;0.90;;;;;;;;;;4966641;28;20201;-52
2022/09/17 03:22:02;;;;;;;4.03;1.30;;;;;;;;;;4982167;28;20201;-54
2022/09/17 03:24:28;;;;;;;2.90;1.30;;;;;;;;;;4980823;28;20623;-52
2022/09/17 03:26:54;;;;;;;2.20;1.13;;;;;;;;;;4971796;28;20295;-54
2022/09/17 03:29:21;;;;;;;2.93;0.93;;;;;;;;;;4989223;28;20201;-49
2022/09/17 03:31:47;;;;;;;2.07;1.10;;;;;;;;;;4986495;28;20636;-53
2022/09/17 03:34:13;;;;;;;2.53;1.20;;;;;;;;;;4978531;28;21750;-52
2022/09/17 03:36:40;;;;;;;1.33;0.73;;;;;;;;;;4969983;28;20319;-50
2022/09/17 03:39:06;;;;;;;2.13;1.00;;;;;;;;;;4988036;28;20678;-54
2022/09/17 03:41:32;;;;;;;2.93;0.97;;;;;;;;;;4989549;28;20724;-51
2022/09/17 03:43:59;;;;;;;6.33;1.00;;;;;;;;;;4980461;28;20228;-53
2022/09/17 03:46:25;;;;;;;3.37;1.10;;;;;;;;;;4986091;28;20724;-54
2022/09/17 03:48:51;;;;;;;3.23;1.30;;;;;;;;;;4978265;28;20207;-54
2022/09/17 03:51:18;;;;;;;3.20;1.00;;;;;;;;;;4977728;28;20229;-54
2022/09/17 03:53:44;;;;;;;2.67;0.97;;;;;;;;;;4976134;28;20247;-53
2022/09/17 03:56:11;;;;;;;2.43;1.20;;;;;;;;;;4983551;28;20506;-51
2022/09/17 03:58:37;;;;;;;5.53;1.20;;;;;;;;;;4987896;28;20230;-52
2022/09/17 04:01:04;;;;;;;4.30;1.63;;;;;;;;;;4980983;28;20669;-54
2022/09/17 04:03:31;;;;;;;2.50;1.10;;;;;;;;;;4987421;28;20197;-54
2022/09/17 04:05:57;;;;;;;3.70;1.20;;;;;;;;;;4987731;28;20291;-52
2022/09/17 04:08:23;;;;;;;4.27;1.20;;;;;;;;;;4986395;28;20311;-54
2022/09/17 04:10:52;;;;;;;2.37;1.20;;;;;;;;;;4978939;28;20316;-50
2022/09/17 04:13:19;;;;;;;2.50;1.10;;;;;;;;;;4983048;28;20634;-54
2022/09/17 04:15:45;;;;;;;2.93;1.07;;;;;;;;;;4979364;28;20733;-52
2022/09/17 04:18:12;;;;;;;3.90;1.20;;;;;;;;;;4976684;28;20271;-53
2022/09/17 04:20:39;;;;;;;1.87;1.03;;;;;;;;;;4982045;28;20287;-54
2022/09/17 04:23:08;;;;;;;2.80;1.30;;;;;;;;;;4977496;28;20193;-54
2022/09/17 04:25:35;;;;;;;3.17;1.30;;;;;;;;;;4988113;28;20232;-53
2022/09/17 04:28:01;;;;;;;2.67;1.03;;;;;;;;;;4976995;28;20295;-54
2022/09/17 04:30:28;;;;;;;1.77;1.00;;;;;;;;;;4978232;28;20836;-53
2022/09/17 04:32:54;;;;;;;3.57;1.00;;;;;;;;;;4977471;28;20287;-53
2022/09/17 04:35:21;;;;;;;2.80;0.93;;;;;;;;;;4987449;28;20279;-54
2022/09/17 04:37:57;;;;;;;3.13;1.00;;;;;;;;;;4987618;28;20216;-54
2022/09/17 04:40:24;;;;;;;3.77;1.10;;;;;;;;;;4986062;28;20339;-54
2022/09/17 04:42:52;;;;;;;3.80;1.60;;;;;;;;;;4987175;28;20346;-51
2022/09/17 04:45:18;;;;;;;3.47;1.07;;;;;;;;;;4989140;28;20232;-51
2022/09/17 04:47:45;;;;;;;3.47;1.10;;;;;;;;;;4986245;28;20275;-54
2022/09/17 04:50:11;;;;;;;2.33;1.00;;;;;;;;;;4987363;28;20309;-54
2022/09/17 04:52:42;;;;;;;3.90;1.20;;;;;;;;;;4987108;28;20757;-52
2022/09/17 04:55:08;;;;;;;3.83;1.00;;;;;;;;;;4987342;28;20284;-53
2022/09/17 04:57:34;;;;;;;5.43;1.30;;;;;;;;;;4987929;28;20644;-54
2022/09/17 05:00:01;;;;;;;2.30;1.10;;;;;;;;;;4989354;28;20296;-54
2022/09/17 05:02:27;;;;;;;2.40;1.10;;;;;;;;;;4987861;28;20279;-53
2022/09/17 05:04:55;;;;;;;2.73;1.10;;;;;;;;;;4988888;28;20535;-54
2022/09/17 05:07:22;;;;;;;2.47;1.23;;;;;;;;;;4989573;28;20304;-54
2022/09/17 05:09:48;;;;;;;3.50;1.20;;;;;;;;;;4989443;28;20431;-54
2022/09/17 05:12:14;;;;;;;5.33;1.40;;;;;;;;;;4991343;28;20232;-54
2022/09/17 05:14:41;;;;;;;3.80;1.10;;;;;;;;;;4989771;28;20292;-52
2022/09/17 05:17:07;;;;;;;3.23;0.93;;;;;;;;;;4983184;28;20461;-54
2022/09/17 05:19:33;;;;;;;3.13;1.10;;;;;;;;;;4989499;28;20205;-52
2022/09/17 05:22:00;;;;;;;4.57;1.37;;;;;;;;;;4987651;28;20287;-52
2022/09/17 05:24:26;;;;;;;1.93;1.13;;;;;;;;;;4986716;28;20281;-53
2022/09/17 05:26:52;;;;;;;2.77;1.17;;;;;;;;;;4989760;28;20327;-54
2022/09/17 05:29:19;;;;;;;2.93;1.20;;;;;;;;;;4991157;28;20288;-53
2022/09/17 05:31:45;;;;;;;2.40;1.13;;;;;;;;;;4988649;28;20316;-55
2022/09/17 05:34:12;;;;;;;2.50;1.20;;;;;;;;;;4971876;28;20201;-54
2022/09/17 05:36:38;;;;;;;5.20;1.30;;;;;;;;;;4990550;28;20271;-54
2022/09/17 05:39:04;;;;;;;2.93;1.33;;;;;;;;;;4987648;28;20675;-53
2022/09/17 05:41:31;;;;;;;2.63;1.17;;;;;;;;;;4990741;28;20700;-52
2022/09/17 05:43:57;;;;;;;3.43;1.50;;;;;;;;;;4970856;28;20284;-53
2022/09/17 05:46:23;;;;;;;4.27;1.20;;;;;;;;;;4989414;28;20201;-54
2022/09/17 05:48:50;;;;;;;2.70;1.33;;;;;;;;;;4987515;28;20232;-54
2022/09/17 05:51:17;;;;;;;4.43;1.20;;;;;;;;;;4987606;28;20215;-54
2022/09/17 05:53:44;;;;;;;5.33;1.50;;;;;;;;;;4989434;28;20205;-52
2022/09/17 05:56:10;;;;;;;2.97;1.20;;;;;;;;;;4989419;28;20744;-53
2022/09/17 05:58:36;;;;;;;3.33;1.70;;;;;;;;;;4981745;28;20304;-54
2022/09/17 06:01:03;;;;;;;5.10;1.37;;;;;;;;;;4990156;28;20308;-54
2022/09/17 06:03:29;;;;;;;3.60;1.17;;;;;;;;;;4990045;28;20203;-54
2022/09/17 06:05:57;;;;;;;5.60;1.20;;;;;;;;;;4988404;28;20292;-54
2022/09/17 06:08:25;;;;;;;3.63;1.40;;;;;;;;;;4972037;28;20308;-54
2022/09/17 06:10:52;;;;;;;2.67;1.17;;;;;;;;;;4988621;28;20587;-53
2022/09/17 06:13:19;;;;;;;4.73;1.33;;;;;;;;;;4990452;28;20288;-54
2022/09/17 06:15:52;;;;;;;3.03;1.03;;;;;;;;;;4987194;28;20280;-54
2022/09/17 06:18:19;;;;;;;4.60;1.33;;;;;;;;;;4986817;28;20721;-53
2022/09/17 06:20:55;;;;;;;1.50;0.90;;;;;;;;;;4987679;28;20555;-53
2022/09/17 06:23:23;;;;;;;5.67;1.20;;;;;;;;;;4969951;28;20244;-52
2022/09/17 06:25:52;;;;;;;2.43;1.30;;;;;;;;;;4987056;28;20233;-52
2022/09/17 06:28:19;;;;;;;4.20;1.20;;;;;;;;;;4955491;28;20231;-54
2022/09/17 06:30:45;;;;;;;11.47;1.80;;;;;;;;;;4986968;28;20303;-53
2022/09/17 06:33:11;;;;;;;4.70;1.20;;;;;;;;;;4988356;28;20197;-53
2022/09/17 06:35:38;;;;;;;6.57;1.50;;;;;;;;;;4987637;28;20280;-51
2022/09/17 06:38:04;;;;;;;5.90;1.77;;;;;;;;;;4988026;28;20251;-53
2022/09/17 06:40:31;;;;;;;4.67;1.30;;;;;;;;;;4989329;28;20261;-53
2022/09/17 06:42:58;;;;;;;4.97;1.60;;;;;;;;;;4986532;28;20229;-51
2022/09/17 06:45:28;;;;;;;3.87;1.43;;;;;;;;;;4969985;28;20335;-54
2022/09/17 06:47:55;;;;;;;5.23;1.43;;;;;;;;;;4985682;28;20315;-55
2022/09/17 06:50:21;;;;;;;4.37;1.97;;;;;;;;;;4986023;28;20220;-55
2022/09/17 06:52:52;;;;;;;3.90;1.57;;;;;;;;;;4988290;28;20284;-53
2022/09/17 06:55:19;;;;;;;17.37;2.70;;;;;;;;;;4983421;28;20691;-52
2022/09/17 06:57:45;;;;;;;8.43;1.60;;;;;;;;;;4984587;28;20339;-58
2022/09/17 07:00:13;;;;;;;14.20;2.03;;;;;;;;;;4982481;28;20576;-58
2022/09/17 07:02:40;;;;;;;7.53;1.80;;;;;;;;;;4983320;28;20263;-58
2022/09/17 07:05:06;;;;;;;17.10;1.60;;;;;;;;;;4983628;28;20233;-56
2022/09/17 07:07:34;;;;;;;9.33;1.70;;;;;;;;;;4989357;28;20307;-57
2022/09/17 07:10:01;;;;;;;5.43;1.47;;;;;;;;;;4987483;28;20228;-59
2022/09/17 07:12:28;;;;;;;5.33;1.40;;;;;;;;;;4970345;28;20193;-57
2022/09/17 07:14:54;;;;;;;8.27;1.60;;;;;;;;;;4981218;28;20292;-57
2022/09/17 07:17:20;;;;;;;7.80;1.50;;;;;;;;;;4985296;28;20307;-58
2022/09/17 07:19:47;;;;;;;4.30;1.43;;;;;;;;;;4973041;28;20582;-57
2022/09/17 07:22:13;;;;;;;5.27;1.70;;;;;;;;;;4988059;28;20248;-56
2022/09/17 07:24:39;;;;;;;5.40;1.70;;;;;;;;;;4982216;28;20193;-56
2022/09/17 07:27:05;;;;;;;4.23;1.57;;;;;;;;;;4982247;28;20307;-58
2022/09/17 07:29:32;;;;;;;10.20;1.80;;;;;;;;;;4983343;28;20280;-58
2022/09/17 07:31:58;;;;;;;6.63;1.60;;;;;;;;;;4986918;28;20300;-53
2022/09/17 07:34:27;;;;;;;3.83;1.60;;;;;;;;;;4982196;28;20301;-56
2022/09/17 07:36:53;;;;;;;3.83;1.40;;;;;;;;;;4985170;28;20296;-56
2022/09/17 07:39:20;;;;;;;8.33;1.57;;;;;;;;;;4986386;28;20201;-57
2022/09/17 07:41:46;;;;;;;4.27;1.80;;;;;;;;;;4979869;28;20200;-55
2022/09/17 07:44:12;;;;;;;6.43;1.30;;;;;;;;;;4970341;28;20203;-57
2022/09/17 07:46:39;;;;;;;3.77;1.40;;;;;;;;;;4986860;28;20308;-58
2022/09/17 07:49:05;;;;;;;3.17;1.40;;;;;;;;;;4985685;28;20289;-58
2022/09/17 07:51:32;;;;;;;5.80;1.60;;;;;;;;;;4982425;28;20308;-57
2022/09/17 07:53:58;;;;;;;4.97;1.50;;;;;;;;;;4984810;28;20197;-57
2022/09/17 07:56:26;;;;;;;4.93;1.40;;;;;;;;;;4987242;28;20280;-58
2022/09/17 07:58:52;;;;;;;6.17;1.53;;;;;;;;;;4984802;28;20576;-57
2022/09/17 08:01:21;;;;;;;5.13;1.57;;;;;;;;;;4979907;28;20280;-58
2022/09/17 08:03:52;;;;;;;4.90;1.63;;;;;;;;;;4977111;28;20209;-56
2022/09/17 08:06:22;;;;;;;4.73;1.33;;;;;;;;;;4982710;28;20201;-56
2022/09/17 08:08:49;;;;;;;4.23;1.53;;;;;;;;;;4980877;28;20252;-56
2022/09/17 08:11:20;;;;;;;8.30;1.77;;;;;;;;;;4981815;28;20351;-58
2022/09/17 08:14:09;;;;;;;6.30;1.50;;;;;;;;;;4983443;28;20197;-59
2022/09/17 08:16:36;;;;;;;5.00;1.57;;;;;;;;;;4980475;28;20248;-58
2022/09/17 08:19:02;;;;;;;4.50;1.30;;;;;;;;;;4983850;28;20204;-58
2022/09/17 08:21:28;;;;;;;6.43;1.40;;;;;;;;;;4983403;28;20284;-57
2022/09/17 08:23:56;;;;;;;4.70;1.43;;;;;;;;;;4980808;28;20320;-57
2022/09/17 08:26:23;;;;;;;4.57;1.40;;;;;;;;;;4987450;28;20292;-57
2022/09/17 08:28:53;;;;;;;3.90;1.20;;;;;;;;;;4985535;28;20613;-56
2022/09/17 08:31:21;;;;;;;4.87;1.50;;;;;;;;;;4979975;28;20303;-57
2022/09/17 08:33:48;;;;;;;5.40;1.70;;;;;;;;;;4985529;28;20201;-56
2022/09/17 08:36:17;;;;;;;7.70;1.63;;;;;;;;;;4981793;28;20224;-57
2022/09/17 08:38:44;;;;;;;5.80;1.40;;;;;;;;;;4984352;28;20422;-56
2022/09/17 08:41:15;;;;;;;4.28;1.35;;;;;;;;;;4984752;28;20321;-57
2022/09/17 08:44:03;;;;;;;6.57;1.65;;;;;;;;;;4969603;28;20387;-56
2022/09/17 08:46:32;;;;;;;6.65;1.65;;;;;;;;;;4977427;28;20292;-56
2022/09/17 08:49:11;;;;;;;5.82;1.45;;;;;;;;;;4980504;28;20197;-55
2022/09/17 08:52:02;;;;;;;6.18;1.60;;;;;;;;;;4981824;28;20236;-54
2022/09/17 08:54:45;;;;;;;5.70;1.83;;;;;;;;;;4988223;28;20711;-54
2022/09/17 08:57:14;;;;;;;6.13;1.30;;;;;;;;;;4983844;28;20304;-56
2022/09/17 08:59:59;;;;;;;5.63;1.23;;;;;;;;;;4987349;28;20201;-53
2022/09/17 09:02:55;;;;;;;5.10;1.38;;;;;;;;;;4968732;28;20673;-54
2022/09/17 09:05:24;;;;;;;2.70;1.20;;;;;;;;;;4972146;28;20197;-54
2022/09/17 09:07:55;;;;;;;6.82;1.30;;;;;;;;;;4968676;28;20231;-54
2022/09/17 09:10:26;;;;;;;5.60;1.40;;;;;;;;;;4971443;28;20634;-56
2022/09/17 09:12:54;;;;;;;2.60;1.20;;;;;;;;;;4987855;28;20224;-53
2022/09/17 09:15:42;;;;;;;2.90;1.10;;;;;;;;;;4967812;28;20725;-54
2022/09/17 09:18:20;;;;;;;4.22;1.00;;;;;;;;;;4985243;28;20264;-56
2022/09/17 09:20:54;;;;;;;4.88;1.05;;;;;;;;;;4980123;28;20264;-56
2022/09/17 09:23:30;;;;;;;4.38;1.13;;;;;;;;;;4962584;28;20284;-52
2022/09/17 09:26:16;;;;;;;2.35;0.90;;;;;;;;;;4961806;28;20203;-54
2022/09/17 09:29:16;;;;;;;4.38;1.20;;;;;;;;;;4990295;28;20268;-55
2022/09/17 09:31:59;;;;;;;7.72;1.20;;;;;;;;;;4969827;28;20312;-55
2022/09/17 09:34:27;;;;;;;4.05;1.20;;;;;;;;;;4986243;28;20220;-57
2022/09/17 09:37:04;;;;;;;6.20;0.85;;;;;;;;;;4995246;28;20311;-52
2022/09/17 09:39:34;;;;;;;3.97;0.80;;;;;;;;;;4971112;28;20291;-53
2022/09/17 09:42:22;;;;;;;3.63;0.90;;;;;;;;;;4973914;28;20197;-51
2022/09/17 09:44:48;;;;;;;5.43;1.03;;;;;;;;;;4990897;28;20196;-53
2022/09/17 09:47:20;;;;;;;2.73;0.93;;;;;;;;;;4972736;28;20220;-53
2022/09/17 09:49:50;;;;;;;6.33;1.17;;;;;;;;;;4989811;28;20211;-52
2022/09/17 09:52:48;;;;;;;2.50;0.90;;;;;;;;;;4987082;28;20221;-53
2022/09/17 09:55:23;;;;;;;1.30;0.77;;;;;;;;;;4943533;28;20205;-54
2022/09/17 09:58:00;;;;;;;2.83;1.20;;;;;;;;;;4985816;28;20303;-55
2022/09/17 10:00:42;;;;;;;2.63;1.00;;;;;;;;;;4988955;28;20680;-56
2022/09/17 10:03:14;;;;;;;4.10;1.10;;;;;;;;;;4990233;28;20280;-56
2022/09/17 10:05:52;;;;;;;2.07;1.00;;;;;;;;;;4990904;28;20660;-55
2022/09/17 10:08:18;;;;;;;3.53;1.27;;;;;;;;;;4966805;28;20252;-55
2022/09/17 10:10:55;;;;;;;3.33;0.90;;;;;;;;;;4990815;28;20211;-54
2022/09/17 10:13:21;;;;;;;2.23;0.77;;;;;;;;;;4986506;28;20617;-54
2022/09/17 10:15:48;;;;;;;2.17;0.80;;;;;;;;;;4990516;28;20291;-53
2022/09/17 10:18:19;;;;;;;2.97;1.00;;;;;;;;;;4989604;28;20229;-55
2022/09/17 10:20:51;;;;;;;3.00;0.83;;;;;;;;;;4990219;28;20724;-55
2022/09/17 10:23:18;;;;;;;2.03;0.87;;;;;;;;;;4989321;28;20189;-57
2022/09/17 10:25:44;;;;;;;2.67;0.80;;;;;;;;;;4990610;28;20631;-57
2022/09/17 10:28:32;;;;;;;2.67;0.90;;;;;;;;;;4990279;28;20787;-57
2022/09/17 10:31:00;;;;;;;3.77;0.83;;;;;;;;;;4990178;28;20733;-55
2022/09/17 10:33:35;;;;;;;2.53;0.90;;;;;;;;;;4973162;28;20201;-57
2022/09/17 10:36:03;;;;;;;2.47;1.00;;;;;;;;;;4985549;28;20295;-55
2022/09/17 10:38:37;;;;;;;3.90;0.90;;;;;;;;;;4989000;28;20307;-54
2022/09/17 10:41:20;;;;;;;3.47;0.80;;;;;;;;;;4980068;28;20289;-56
2022/09/17 10:43:48;;;;;;;2.83;1.77;;;;;;;;;;4972229;28;20208;-54
2022/09/17 10:46:20;;;;;;;3.00;1.00;;;;;;;;;;4989669;28;20598;-54
2022/09/17 10:49:19;;;;;;;4.10;1.27;;;;;;;;;;4989318;28;20207;-53
2022/09/17 10:51:45;;;;;;;5.88;2.45;;;;;;;;;;4972189;28;20306;-53
2022/09/17 10:54:11;;;;;;;4.25;1.00;;;;;;;;;;4988841;28;20717;-53
2022/09/17 10:56:42;;;;;;;3.17;0.93;;;;;;;;;;4989841;28;20307;-55
2022/09/17 10:59:35;;;;;;;2.40;0.98;;;;;;;;;;4968375;28;20233;-56
2022/09/17 11:02:31;;;;;;;4.18;1.00;;;;;;;;;;4989697;28;20220;-53
2022/09/17 11:05:20;;;;;;;2.70;1.00;;;;;;;;;;4989665;28;20201;-56
2022/09/17 11:07:53;;;;;;;4.10;1.00;;;;;;;;;;4986273;28;20311;-53
2022/09/17 11:10:32;;;;;;;2.38;1.00;;;;;;;;;;4982913;28;20284;-53
2022/09/17 11:13:20;;;;;;;5.07;0.90;;;;;;;;;;4973476;28;20301;-55
2022/09/17 11:16:13;;;;;;;3.42;1.13;;;;;;;;;;4987420;28;20292;-55
2022/09/17 11:18:44;;;;;;;3.08;0.80;;;;;;;;;;4984681;28;20255;-52
2022/09/17 11:21:25;;;;;;;3.75;1.05;;;;;;;;;;4985871;28;20218;-55
2022/09/17 11:24:14;;;;;;;2.38;0.98;;;;;;;;;;4961416;28;20228;-53
2022/09/17 11:26:44;;;;;;;3.08;0.90;;;;;;;;;;4983156;28;20267;-54
2022/09/17 11:29:30;;;;;;;4.80;1.10;;;;;;;;;;4986403;28;20296;-53
2022/09/17 11:32:20;;;;;;;3.95;0.80;;;;;;;;;;4966701;28;20311;-54
2022/09/17 11:34:57;;;;;;;2.45;0.75;;;;;;;;;;4982310;28;20289;-54
2022/09/17 11:37:31;;;;;;;2.47;0.98;;;;;;;;;;4975348;28;20307;-53
2022/09/17 11:39:59;;;;;;;4.25;0.85;;;;;;;;;;4968276;28;20295;-54
2022/09/17 11:42:32;;;;;;;2.20;0.70;;;;;;;;;;4977874;28;20209;-52
2022/09/17 11:45:02;;;;;;;2.58;0.90;;;;;;;;;;4962777;28;20291;-53
2022/09/17 11:47:37;;;;;;;2.90;0.70;;;;;;;;;;4960005;28;20245;-54
2022/09/17 11:50:23;;;;;;;3.60;0.82;;;;;;;;;;4962795;28;20287;-53
2022/09/17 11:53:02;;;;;;;7.53;0.95;;;;;;;;;;4965815;28;20221;-55
2022/09/17 11:55:43;;;;;;;3.47;1.02;;;;;;;;;;4967151;28;20680;-53
2022/09/17 11:58:33;;;;;;;4.18;0.90;;;;;;;;;;4983715;28;20716;-54
2022/09/17 12:01:02;;;;;;;3.83;0.90;;;;;;;;;;4964176;28;20580;-57
2022/09/17 12:03:35;;;;;;;2.97;0.85;;;;;;;;;;4982747;28;20232;-57
2022/09/17 12:06:12;;;;;;;3.45;1.35;;;;;;;;;;4966481;28;20235;-55
2022/09/17 12:08:42;;;;;;;2.85;0.90;;;;;;;;;;4960420;28;20304;-57
2022/09/17 12:11:26;;;;;;;3.63;1.30;;;;;;;;;;4962080;28;20284;-56
2022/09/17 12:13:56;;;;;;;1.90;1.00;;;;;;;;;;4982121;28;20293;-56
2022/09/17 12:16:27;;;;;;;2.65;1.00;;;;;;;;;;4969901;28;20291;-55
2022/09/17 12:19:06;;;;;;;1.73;0.80;;;;;;;;;;4969386;28;20700;-56
2022/09/17 12:21:36;;;;;;;3.30;0.95;;;;;;;;;;4968273;28;20283;-52
2022/09/17 12:24:24;;;;;;;3.67;1.10;;;;;;;;;;4973030;28;20284;-52
2022/09/17 12:27:32;;;;;;;1.88;0.90;;;;;;;;;;4990740;28;20666;-56
2022/09/17 12:30:17;;;;;;;1.88;0.82;;;;;;;;;;4961958;28;20280;-54
2022/09/17 12:32:56;;;;;;;2.08;0.90;;;;;;;;;;4979587;28;20242;-55
2022/09/17 12:35:45;;;;;;;3.13;0.98;;;;;;;;;;4967675;28;20220;-54
2022/09/17 12:38:55;;;;;;;2.38;0.80;;;;;;;;;;4965716;28;20217;-53
2022/09/17 12:41:59;;;;;;;2.45;0.90;;;;;;;;;;4989406;28;20735;-56
2022/09/17 12:44:53;;;;;;;1.17;0.70;;;;;;;;;;4986999;28;20208;-55
2022/09/17 12:47:58;;;;;;;2.05;0.88;;;;;;;;;;4966903;28;20303;-55
2022/09/17 12:50:34;;;;;;;3.22;0.70;;;;;;;;;;4970222;28;20231;-54
2022/09/17 12:53:34;;;;;;;1.80;0.75;;;;;;;;;;4969522;28;20820;-54
2022/09/17 12:56:05;;;;;;;1.58;0.85;;;;;;;;;;4951013;28;20279;-53
2022/09/17 12:58:38;;;;;;;0.63;0.50;;;;;;;;;;4968471;28;20283;-53
2022/09/17 13:01:12;;;;;;;1.17;0.70;;;;;;;;;;4968811;28;20288;-51
2022/09/17 13:03:42;;;;;;;2.15;0.70;;;;;;;;;;4971302;28;20201;-53
2022/09/17 13:06:27;;;;;;;1.17;0.60;;;;;;;;;;4969637;28;20223;-53
2022/09/17 13:09:21;;;;;;;1.70;0.80;;;;;;;;;;4988569;28;20235;-55
2022/09/17 13:12:04;;;;;;;1.92;0.77;;;;;;;;;;4965232;28;20236;-53
2022/09/17 13:14:55;;;;;;;3.45;0.80;;;;;;;;;;4988438;28;20207;-53
2022/09/17 13:17:53;;;;;;;1.80;0.70;;;;;;;;;;4982421;28;20315;-54
2022/09/17 13:21:02;;;;;;;2.05;0.52;;;;;;;;;;4986766;28;20202;-56
2022/09/17 13:23:35;;;;;;;3.43;0.93;;;;;;;;;;4979164;28;20642;-54
2022/09/17 13:26:04;;;;;;;2.30;0.77;;;;;;;;;;4990085;28;20275;-53
2022/09/17 13:28:48;;;;;;;2.50;0.80;;;;;;;;;;4982283;28;20308;-55
2022/09/17 13:31:43;;;;;;;2.37;0.60;;;;;;;;;;4964182;28;20248;-54
2022/09/17 13:34:18;;;;;;;1.33;0.70;;;;;;;;;;4983420;28;20291;-53
2022/09/17 13:36:47;;;;;;;1.70;0.60;;;;;;;;;;4976388;28;20220;-53
2022/09/17 13:39:37;;;;;;;2.20;0.90;;;;;;;;;;4962361;28;20292;-53
2022/09/17 13:42:27;;;;;;;1.73;0.60;;;;;;;;;;4979958;28;20228;-54
2022/09/17 13:45:06;;;;;;;0.80;0.50;;;;;;;;;;4980582;28;20291;-54
2022/09/17 13:47:54;;;;;;;1.77;0.60;;;;;;;;;;4964599;28;20218;-53
2022/09/17 13:50:29;;;;;;;2.13;0.70;;;;;;;;;;4975086;28;20280;-55
2022/09/17 13:52:57;;;;;;;1.27;0.43;;;;;;;;;;4971321;28;20318;-54
2022/09/17 13:55:34;;;;;;;1.83;0.50;;;;;;;;;;4963594;28;20224;-53
2022/09/17 13:58:03;;;;;;;4.27;0.60;;;;;;;;;;4967791;28;20304;-56
2022/09/17 14:00:49;;;;;;;1.13;0.50;;;;;;;;;;4983346;28;20749;-54
2022/09/17 14:03:35;;;;;;;0.80;0.40;;;;;;;;;;4980612;28;20201;-56
2022/09/17 14:06:05;;;;;;;0.80;0.50;;;;;;;;;;4988130;28;20229;-57
2022/09/17 14:08:43;;;;;;;2.10;0.67;;;;;;;;;;4989290;28;20267;-57
2022/09/17 14:11:28;;;;;;;0.77;0.47;;;;;;;;;;4969325;28;20197;-57
2022/09/17 14:14:03;;;;;;;2.20;0.90;;;;;;;;;;4984509;28;20256;-57
2022/09/17 14:16:39;;;;;;;1.20;0.60;;;;;;;;;;4984743;28;20292;-57
2022/09/17 14:19:14;;;;;;;0.90;0.47;;;;;;;;;;4981745;28;20229;-55
2022/09/17 14:21:55;;;;;;;1.20;0.60;;;;;;;;;;4967988;28;20215;-57
2022/09/17 14:24:23;;;;;;;1.33;0.70;;;;;;;;;;4983941;28;20252;-54
2022/09/17 14:27:03;;;;;;;1.20;0.57;;;;;;;;;;4969519;28;20231;-53
2022/09/17 14:30:03;;;;;;;2.33;0.50;;;;;;;;;;4963628;28;20398;-54
2022/09/17 14:32:43;;;;;;;1.93;0.50;;;;;;;;;;4982649;28;20748;-56
2022/09/17 14:35:38;;;;;;;0.53;0.43;;;;;;;;;;4966998;28;20756;-56
2022/09/17 14:38:25;;;;;;;2.37;0.57;;;;;;;;;;4982642;28;20320;-55
2022/09/17 14:41:02;;;;;;;2.90;1.27;;;;;;;;;;4981475;28;20287;-53
2022/09/17 14:43:54;;;;;;;1.27;0.57;;;;;;;;;;4970320;28;20288;-56
2022/09/17 14:46:30;;;;;;;0.93;0.57;;;;;;;;;;4982533;28;20295;-53
2022/09/17 14:49:20;;;;;;;2.67;0.77;;;;;;;;;;4968882;28;20217;-53
2022/09/17 14:51:46;;;;;;;3.00;0.60;;;;;;;;;;4983334;28;20207;-55
2022/09/17 14:54:17;;;;;;;2.03;0.50;;;;;;;;;;4983307;28;20217;-55
2022/09/17 14:56:50;;;;;;;2.03;0.63;;;;;;;;;;4989495;28;20311;-53
2022/09/17 14:59:53;;;;;;;2.70;0.80;;;;;;;;;;4985236;28;20609;-55
2022/09/17 15:02:29;;;;;;;1.20;0.60;;;;;;;;;;4985837;28;20544;-55
2022/09/17 15:04:56;;;;;;;3.77;1.03;;;;;;;;;;4979884;28;20255;-52
2022/09/17 15:07:23;;;;;;;1.10;0.60;;;;;;;;;;4958034;28;20305;-56
2022/09/17 15:09:54;;;;;;;1.73;0.60;;;;;;;;;;4978836;28;20288;-56
2022/09/17 15:12:26;;;;;;;2.33;0.70;;;;;;;;;;4973969;28;20241;-55
2022/09/17 15:14:53;;;;;;;0.90;0.60;;;;;;;;;;4959357;28;20201;-53
2022/09/17 15:17:19;;;;;;;2.97;0.50;;;;;;;;;;4963512;28;20324;-54
2022/09/17 15:19:50;;;;;;;1.17;0.40;;;;;;;;;;4975123;28;20215;-56
2022/09/17 15:22:22;;;;;;;2.23;0.80;;;;;;;;;;4962618;28;20289;-57